Time;durP1;ratioP1;P1;durP2;ratioP2;P2;SDS_P1;SDS_P2;PMS_P1;PMS_P2;Temp;Humidity;BMP_temperature;BMP_pressure;BME280_temperature;BME280_humidity;BME280_pressure;Samples;Min_cycle;Max_cycle;Signal;HPM_P1;HPM_P2
2022/10/11 00:01:43;;;;;;;17.23;9.32;;;;;;;11.17;nan;94433.91;4937645;29;20054;-69
2022/10/11 00:04:10;;;;;;;19.17;9.40;;;;;;;11.19;nan;94437.03;4933838;29;20048;-69
2022/10/11 00:06:37;;;;;;;16.83;10.25;;;;;;;11.16;nan;94434.31;4934392;29;20044;-69
2022/10/11 00:09:04;;;;;;;16.25;9.32;;;;;;;11.19;nan;94441.75;4933613;29;20054;-69
2022/10/11 00:11:31;;;;;;;16.58;9.10;;;;;;;11.18;nan;94438.19;4934209;29;20043;-69
2022/10/11 00:13:58;;;;;;;16.08;9.13;;;;;;;11.19;nan;94433.50;4930828;29;20044;-69
2022/10/11 00:16:25;;;;;;;15.53;9.17;;;;;;;11.13;nan;94430.41;4932257;29;20047;-69
2022/10/11 00:18:52;;;;;;;17.25;9.02;;;;;;;10.93;nan;94421.94;4933655;29;20050;-69
2022/10/11 00:21:20;;;;;;;17.63;9.45;;;;;;;10.93;nan;94421.19;4933851;29;20044;-69
2022/10/11 00:23:48;;;;;;;17.52;9.10;;;;;;;11.02;nan;94415.97;4933968;29;20058;-69
2022/10/11 00:26:15;;;;;;;16.33;9.18;;;;;;;11.05;nan;94428.16;4932815;29;20396;-69
2022/10/11 00:28:42;;;;;;;15.10;8.70;;;;;;;11.00;nan;94424.63;4933749;29;20485;-69
2022/10/11 00:31:11;;;;;;;15.43;7.00;;;;;;;10.83;nan;94420.06;4933271;29;20562;-69
2022/10/11 00:33:38;;;;;;;15.27;6.68;;;;;;;10.64;nan;94421.38;4933723;29;20044;-69
2022/10/11 00:36:07;;;;;;;12.25;6.20;;;;;;;10.74;nan;94427.97;4933182;29;20058;-70
2022/10/11 00:38:34;;;;;;;13.30;5.80;;;;;;;10.85;nan;94425.16;4933755;29;20062;-69
2022/10/11 00:41:01;;;;;;;14.53;7.80;;;;;;;10.79;nan;94430.31;4933152;29;20051;-69
2022/10/11 00:43:29;;;;;;;18.45;9.52;;;;;;;10.55;nan;94426.56;4933782;29;20047;-69
2022/10/11 00:45:56;;;;;;;16.67;9.65;;;;;;;10.43;nan;94425.06;4932986;29;20666;-69
2022/10/11 00:48:43;;;;;;;16.23;8.98;;;;;;;10.50;nan;94426.97;4933484;29;20078;-70
2022/10/11 00:51:19;;;;;;;20.75;11.30;;;;;;;10.44;nan;94425.84;4932898;29;20050;-70
2022/10/11 00:53:48;;;;;;;22.40;10.00;;;;;;;10.45;nan;94425.44;4933144;29;20251;-69
2022/10/11 00:56:29;;;;;;;16.50;9.60;;;;;;;10.49;nan;94426.22;4932398;29;20790;-69
2022/10/11 00:58:59;;;;;;;17.92;9.80;;;;;;;10.55;nan;94429.31;4934108;29;20066;-69
2022/10/11 01:01:26;;;;;;;17.85;9.32;;;;;;;10.63;nan;94422.59;4941257;29;20048;-69
2022/10/11 01:03:54;;;;;;;20.85;12.02;;;;;;;10.67;nan;94417.84;4932959;29;20048;-69
2022/10/11 01:06:21;;;;;;;21.17;11.17;;;;;;;10.75;nan;94413.84;4933573;29;20039;-69
2022/10/11 01:08:50;;;;;;;16.08;9.23;;;;;;;10.74;nan;94420.53;4933091;29;20518;-70
2022/10/11 01:11:22;;;;;;;18.70;9.57;;;;;;;10.71;nan;94417.81;4932386;29;20182;-70
2022/10/11 01:14:14;;;;;;;16.75;9.20;;;;;;;10.70;nan;94419.00;4932600;29;20046;-69
2022/10/11 01:16:52;;;;;;;20.33;9.50;;;;;;;10.57;nan;94424.97;4932191;29;21646;-69
2022/10/11 01:19:41;;;;;;;18.60;9.30;;;;;;;10.63;nan;94419.84;4931968;29;20176;-70
2022/10/11 01:22:10;;;;;;;22.90;12.00;;;;;;;10.67;nan;94422.56;4932529;29;20582;-70
2022/10/11 01:24:59;;;;;;;16.63;9.82;;;;;;;10.72;nan;94416.63;4932733;29;20043;-70
2022/10/11 01:27:49;;;;;;;16.30;8.85;;;;;;;10.76;nan;94425.63;4931903;29;20054;-70
2022/10/11 01:30:33;;;;;;;15.20;8.63;;;;;;;10.74;nan;94419.75;4932019;29;22490;-70
2022/10/11 01:33:10;;;;;;;18.40;8.53;;;;;;;10.69;nan;94420.19;4932197;29;20074;-70
2022/10/11 01:35:50;;;;;;;15.15;8.40;;;;;;;10.67;nan;94423.34;4915924;29;20036;-70
2022/10/11 01:38:29;;;;;;;14.63;7.90;;;;;;;10.56;nan;94420.69;4931862;29;20362;-70
2022/10/11 01:41:01;;;;;;;15.45;7.80;;;;;;;10.67;nan;94425.31;4932170;29;20052;-71
2022/10/11 01:43:29;;;;;;;15.82;8.23;;;;;;;10.70;nan;94428.00;4932412;29;20062;-70
2022/10/11 01:45:57;;;;;;;16.47;7.83;;;;;;;10.66;nan;94424.50;4931987;29;20501;-71
2022/10/11 01:48:24;;;;;;;17.20;8.30;;;;;;;10.49;nan;94426.22;4932475;29;20058;-71
2022/10/11 01:50:54;;;;;;;16.88;8.05;;;;;;;10.51;nan;94423.84;4917627;29;20050;-71
2022/10/11 01:53:52;;;;;;;11.63;7.10;;;;;;;10.54;nan;94430.47;4932265;29;20047;-70
2022/10/11 01:56:25;;;;;;;14.85;7.10;;;;;;;10.51;nan;94436.78;4931763;29;21478;-70
2022/10/11 01:59:04;;;;;;;18.57;7.27;;;;;;;10.52;nan;94430.09;4931955;29;20046;-70
2022/10/11 02:01:58;;;;;;;14.18;6.85;;;;;;;10.50;nan;94427.78;4939208;29;20122;-70
2022/10/11 02:04:49;;;;;;;14.23;7.28;;;;;;;10.47;nan;94427.78;4931324;29;20515;-70
2022/10/11 02:07:20;;;;;;;18.70;8.30;;;;;;;10.31;nan;94422.81;4919699;29;21803;-70
2022/10/11 02:09:51;;;;;;;20.08;8.25;;;;;;;10.06;nan;94425.63;4931638;29;20052;-70
2022/10/11 02:12:35;;;;;;;16.20;8.37;;;;;;;9.91;nan;94422.97;4930972;29;20634;-70
2022/10/11 02:15:08;;;;;;;15.80;8.63;;;;;;;10.00;nan;94420.59;4931608;29;20044;-70
2022/10/11 02:17:40;;;;;;;16.83;7.40;;;;;;;10.02;nan;94425.69;4932033;29;20044;-70
2022/10/11 02:20:13;;;;;;;13.55;7.80;;;;;;;10.00;nan;94420.59;4931736;29;20413;-70
2022/10/11 02:22:44;;;;;;;15.57;7.50;;;;;;;9.99;nan;94416.28;4931992;29;20044;-70
2022/10/11 02:25:15;;;;;;;12.97;6.70;;;;;;;9.95;nan;94412.75;4931712;29;20404;-70
2022/10/11 02:27:45;;;;;;;16.00;6.90;;;;;;;9.94;nan;94413.16;4931945;29;20378;-70
2022/10/11 02:30:14;;;;;;;37.60;19.45;;;;;;;9.91;nan;94413.97;4931625;29;20040;-70
2022/10/11 02:32:45;;;;;;;36.05;17.88;;;;;;;9.82;nan;94416.34;4932308;29;20056;-70
2022/10/11 02:35:12;;;;;;;19.05;9.50;;;;;;;9.82;nan;94413.59;4931568;29;20477;-70
2022/10/11 02:37:59;;;;;;;12.40;6.00;;;;;;;9.80;nan;94414.03;4915263;29;20452;-70
2022/10/11 02:40:41;;;;;;;12.55;5.40;;;;;;;9.76;nan;94405.03;4931091;29;21774;-70
2022/10/11 02:43:18;;;;;;;14.30;5.15;;;;;;;9.70;nan;94412.09;4931519;29;20052;-70
2022/10/11 02:46:02;;;;;;;14.35;5.38;;;;;;;9.59;nan;94410.16;4931840;29;20043;-70
2022/10/11 02:48:31;;;;;;;13.90;5.47;;;;;;;9.63;nan;94414.88;4930976;29;21738;-70
2022/10/11 02:50:58;;;;;;;12.93;5.47;;;;;;;9.64;nan;94411.75;4931172;29;20048;-70
2022/10/11 02:53:25;;;;;;;12.77;5.20;;;;;;;9.70;nan;94415.63;4931446;29;20040;-70
2022/10/11 02:55:53;;;;;;;11.73;5.97;;;;;;;9.56;nan;94424.69;4931333;29;20058;-70
2022/10/11 02:58:22;;;;;;;11.98;6.18;;;;;;;9.51;nan;94422.34;4931640;29;20035;-70
2022/10/11 03:00:49;;;;;;;12.05;5.45;;;;;;;9.50;nan;94423.53;4937328;29;20039;-70
2022/10/11 03:03:16;;;;;;;10.40;5.27;;;;;;;9.57;nan;94418.00;4933570;29;20926;-70
2022/10/11 03:05:42;;;;;;;11.07;5.00;;;;;;;9.57;nan;94423.50;4931661;29;20039;-70
2022/10/11 03:08:11;;;;;;;11.95;5.53;;;;;;;9.55;nan;94425.84;4931316;29;20054;-70
2022/10/11 03:10:38;;;;;;;9.93;5.38;;;;;;;9.63;nan;94423.88;4931529;29;20058;-70
2022/10/11 03:13:05;;;;;;;10.23;5.40;;;;;;;9.59;nan;94421.13;4931067;29;20493;-71
2022/10/11 03:15:32;;;;;;;13.43;5.60;;;;;;;9.68;nan;94415.25;4931334;29;20044;-70
2022/10/11 03:17:59;;;;;;;13.30;6.13;;;;;;;9.74;nan;94421.88;4930984;29;20044;-70
2022/10/11 03:20:26;;;;;;;15.02;6.15;;;;;;;9.65;nan;94418.75;4931570;29;20048;-70
2022/10/11 03:22:53;;;;;;;12.82;6.03;;;;;;;9.56;nan;94421.94;4933693;29;20485;-70
2022/10/11 03:25:19;;;;;;;13.10;6.32;;;;;;;9.62;nan;94424.25;4917994;29;20048;-70
2022/10/11 03:27:46;;;;;;;11.97;6.40;;;;;;;9.63;nan;94420.34;4934937;29;20051;-70
2022/10/11 03:30:15;;;;;;;13.48;6.50;;;;;;;9.66;nan;94420.34;4934521;29;20046;-70
2022/10/11 03:32:44;;;;;;;12.93;6.20;;;;;;;9.78;nan;94430.09;4935052;29;20051;-71
2022/10/11 03:35:11;;;;;;;15.45;6.95;;;;;;;9.67;nan;94423.84;4934209;29;20630;-71
2022/10/11 03:37:37;;;;;;;13.20;6.40;;;;;;;9.79;nan;94426.94;4934927;29;20051;-70
2022/10/11 03:40:07;;;;;;;13.00;6.50;;;;;;;9.95;nan;94423.72;4934087;29;20058;-70
2022/10/11 03:42:35;;;;;;;15.30;7.22;;;;;;;9.96;nan;94427.25;4934548;29;20051;-70
2022/10/11 03:45:06;;;;;;;11.85;6.60;;;;;;;10.02;nan;94428.41;4934194;29;20048;-70
2022/10/11 03:47:37;;;;;;;15.68;6.50;;;;;;;9.99;nan;94423.72;4934532;29;20110;-70
2022/10/11 03:50:07;;;;;;;12.52;7.00;;;;;;;9.99;nan;94431.94;4933865;29;20404;-70
2022/10/11 03:52:34;;;;;;;12.77;6.53;;;;;;;10.11;nan;94427.97;4934138;29;20043;-71
2022/10/11 03:55:01;;;;;;;17.13;7.57;;;;;;;10.13;nan;94425.63;4933958;29;20050;-71
2022/10/11 03:57:29;;;;;;;14.15;7.25;;;;;;;10.08;nan;94429.56;4917090;29;20162;-70
2022/10/11 03:59:56;;;;;;;15.00;7.25;;;;;;;10.16;nan;94427.53;4933854;29;20047;-71
2022/10/11 04:02:23;;;;;;;13.45;7.50;;;;;;;10.00;nan;94431.56;4938500;29;20048;-71
2022/10/11 04:04:50;;;;;;;14.03;7.67;;;;;;;10.03;nan;94434.69;4933990;29;20048;-71
2022/10/11 04:07:17;;;;;;;15.35;7.82;;;;;;;10.13;nan;94433.84;4934068;29;20050;-71
2022/10/11 04:09:43;;;;;;;15.23;7.30;;;;;;;10.23;nan;94433.00;4933790;29;20404;-70
2022/10/11 04:12:10;;;;;;;24.38;11.38;;;;;;;10.19;nan;94424.78;4933529;29;20050;-70
2022/10/11 04:14:37;;;;;;;18.55;8.73;;;;;;;10.23;nan;94429.47;4934091;29;20065;-70
2022/10/11 04:17:04;;;;;;;16.83;8.60;;;;;;;10.27;nan;94420.03;4933195;29;20396;-70
2022/10/11 04:19:30;;;;;;;16.55;7.32;;;;;;;10.25;nan;94427.88;4934168;29;20394;-70
2022/10/11 04:21:58;;;;;;;16.67;8.20;;;;;;;10.15;nan;94428.75;4933216;29;20039;-70
2022/10/11 04:24:25;;;;;;;12.75;7.13;;;;;;;10.03;nan;94427.22;4933870;29;20065;-70
2022/10/11 04:26:52;;;;;;;19.40;8.10;;;;;;;9.85;nan;94421.81;4933195;29;20374;-70
2022/10/11 04:29:18;;;;;;;14.73;7.33;;;;;;;9.99;nan;94431.94;4933588;29;20044;-69
2022/10/11 04:31:45;;;;;;;15.23;7.60;;;;;;;9.94;nan;94429.59;4933763;29;20048;-70
2022/10/11 04:34:12;;;;;;;22.73;9.27;;;;;;;10.10;nan;94438.16;4932362;29;20131;-70
2022/10/11 04:36:39;;;;;;;15.48;9.10;;;;;;;10.20;nan;94442.81;4933468;29;20043;-69
2022/10/11 04:39:06;;;;;;;18.77;9.55;;;;;;;10.11;nan;94434.22;4932848;29;20051;-69
2022/10/11 04:41:33;;;;;;;18.60;8.73;;;;;;;10.11;nan;94445.19;4933348;29;20048;-69
2022/10/11 04:44:01;;;;;;;16.95;8.80;;;;;;;9.71;nan;94438.31;4932955;29;20155;-70
2022/10/11 04:46:28;;;;;;;16.85;8.52;;;;;;;9.98;nan;94446.84;4933443;29;20052;-70
2022/10/11 04:48:55;;;;;;;14.75;8.23;;;;;;;10.11;nan;94445.19;4933694;29;20051;-69
2022/10/11 04:51:23;;;;;;;17.90;9.43;;;;;;;10.24;nan;94450.22;4936757;29;20043;-71
2022/10/11 04:53:50;;;;;;;16.57;8.87;;;;;;;10.34;nan;94446.69;4938676;29;20504;-71
2022/10/11 04:56:17;;;;;;;20.30;9.70;;;;;;;10.37;nan;94446.66;4935553;29;20040;-72
2022/10/11 04:58:47;;;;;;;18.25;9.48;;;;;;;10.43;nan;94452.50;4933541;29;20054;-72
2022/10/11 05:01:14;;;;;;;18.13;8.40;;;;;;;10.32;nan;94454.53;4938883;29;20047;-73
2022/10/11 05:03:41;;;;;;;17.67;8.70;;;;;;;10.30;nan;94460.44;4933040;29;20048;-72
2022/10/11 05:06:07;;;;;;;17.27;8.60;;;;;;;10.06;nan;94453.88;4932493;29;20059;-71
2022/10/11 05:08:35;;;;;;;18.08;9.00;;;;;;;10.30;nan;94459.63;4933293;29;20047;-71
2022/10/11 05:11:05;;;;;;;19.15;10.15;;;;;;;10.36;nan;94458.03;4932767;29;20043;-71
2022/10/11 05:13:33;;;;;;;18.77;8.50;;;;;;;10.38;nan;94453.72;4933220;29;20441;-72
2022/10/11 05:16:01;;;;;;;16.90;8.90;;;;;;;10.25;nan;94462.78;4931438;29;20475;-71
2022/10/11 05:18:33;;;;;;;21.07;10.87;;;;;;;10.34;nan;94463.94;4932169;29;20047;-70
2022/10/11 05:21:18;;;;;;;26.40;13.25;;;;;;;10.45;nan;94458.38;4931716;29;20055;-69
2022/10/11 05:23:47;;;;;;;24.83;11.93;;;;;;;10.48;nan;94460.31;4915470;29;20046;-70
2022/10/11 05:26:15;;;;;;;20.17;10.60;;;;;;;10.41;nan;94462.34;4931159;29;20350;-70
2022/10/11 05:28:43;;;;;;;21.58;10.55;;;;;;;10.43;nan;94459.97;4932262;29;20053;-70
2022/10/11 05:31:10;;;;;;;20.60;10.37;;;;;;;10.30;nan;94460.44;4931513;29;20057;-70
2022/10/11 05:33:37;;;;;;;24.83;11.15;;;;;;;10.36;nan;94469.00;4931903;29;20044;-70
2022/10/11 05:36:05;;;;;;;18.60;9.77;;;;;;;10.51;nan;94472.47;4931714;29;20047;-70
2022/10/11 05:38:32;;;;;;;16.35;8.90;;;;;;;10.27;nan;94466.69;4932310;29;20055;-70
2022/10/11 05:41:01;;;;;;;16.30;8.52;;;;;;;10.16;nan;94468.69;4931569;29;20059;-71
2022/10/11 05:43:29;;;;;;;16.20;8.77;;;;;;;10.12;nan;94474.19;4915482;29;20062;-69
2022/10/11 05:45:55;;;;;;;16.52;8.60;;;;;;;10.19;nan;94476.13;4930240;29;20050;-70
2022/10/11 05:48:23;;;;;;;15.40;8.57;;;;;;;10.15;nan;94478.09;4931557;29;20039;-70
2022/10/11 05:50:49;;;;;;;15.88;8.35;;;;;;;10.14;nan;94482.81;4930927;29;20047;-69
2022/10/11 05:53:17;;;;;;;20.75;11.25;;;;;;;10.22;nan;94483.53;4931654;29;20050;-69
2022/10/11 05:55:44;;;;;;;21.20;10.23;;;;;;;10.29;nan;94483.50;4932137;29;20062;-70
2022/10/11 05:58:17;;;;;;;20.23;10.82;;;;;;;10.42;nan;94477.59;4931944;29;20043;-69
2022/10/11 06:00:44;;;;;;;17.10;10.02;;;;;;;10.36;nan;94480.78;4937841;29;20047;-70
2022/10/11 06:03:11;;;;;;;17.23;9.57;;;;;;;10.46;nan;94487.38;4945717;29;20040;-69
2022/10/11 06:05:38;;;;;;;19.73;9.93;;;;;;;10.46;nan;94486.59;4932557;29;20052;-69
2022/10/11 06:08:07;;;;;;;19.23;10.20;;;;;;;10.61;nan;94482.59;4931810;29;20043;-69
2022/10/11 06:10:35;;;;;;;16.88;9.70;;;;;;;10.62;nan;94489.63;4932079;29;20042;-69
2022/10/11 06:13:02;;;;;;;16.88;10.05;;;;;;;10.76;nan;94492.28;4931743;29;20047;-69
2022/10/11 06:15:28;;;;;;;17.10;9.80;;;;;;;10.78;nan;94494.63;4932056;29;20048;-70
2022/10/11 06:17:56;;;;;;;20.02;10.52;;;;;;;10.71;nan;94492.72;4931781;29;20082;-70
2022/10/11 06:20:24;;;;;;;21.47;12.10;;;;;;;10.64;nan;94491.97;4932100;29;20051;-69
2022/10/11 06:22:51;;;;;;;19.70;10.43;;;;;;;10.76;nan;94500.50;4918433;29;20109;-69
2022/10/11 06:25:18;;;;;;;19.55;10.13;;;;;;;10.85;nan;94491.06;4932502;29;20396;-70
2022/10/11 06:27:45;;;;;;;18.35;9.82;;;;;;;10.80;nan;94489.50;4932320;29;20558;-69
2022/10/11 06:30:12;;;;;;;21.88;10.93;;;;;;;10.62;nan;94489.63;4931626;29;20052;-70
2022/10/11 06:32:39;;;;;;;20.63;11.20;;;;;;;10.83;nan;94490.69;4932359;29;20064;-70
2022/10/11 06:35:06;;;;;;;17.58;9.50;;;;;;;10.84;nan;94495.75;4931565;29;20051;-70
2022/10/11 06:37:33;;;;;;;19.13;10.45;;;;;;;10.85;nan;94504.78;4915308;29;20051;-69
2022/10/11 06:40:00;;;;;;;18.25;10.35;;;;;;;10.92;nan;94508.25;4931430;29;20078;-69
2022/10/11 06:42:27;;;;;;;20.08;10.35;;;;;;;11.04;nan;94500.72;4931975;29;20042;-69
2022/10/11 06:44:54;;;;;;;19.73;10.33;;;;;;;11.15;nan;94515.94;4931779;29;20048;-69
2022/10/11 06:47:21;;;;;;;17.33;9.70;;;;;;;11.02;nan;94508.59;4932095;29;20055;-69
2022/10/11 06:49:48;;;;;;;17.60;9.60;;;;;;;10.92;nan;94512.97;4931732;29;20058;-69
2022/10/11 06:52:15;;;;;;;19.90;9.43;;;;;;;11.05;nan;94516.81;4930882;29;21886;-69
2022/10/11 06:54:42;;;;;;;17.45;9.45;;;;;;;11.03;nan;94513.69;4932040;29;20090;-69
2022/10/11 06:57:10;;;;;;;18.17;9.07;;;;;;;11.25;nan;94517.06;4933562;29;20035;-69
2022/10/11 06:59:37;;;;;;;17.67;8.73;;;;;;;11.20;nan;94512.75;4935739;29;20055;-69
2022/10/11 07:02:05;;;;;;;17.10;9.65;;;;;;;11.32;nan;94519.72;4948379;29;20524;-69
2022/10/11 07:04:32;;;;;;;19.20;9.50;;;;;;;11.34;nan;94520.09;4935687;29;20489;-69
2022/10/11 07:06:59;;;;;;;20.33;9.77;;;;;;;11.35;nan;94513.44;4935001;29;20059;-69
2022/10/11 07:09:26;;;;;;;21.83;10.17;;;;;;;11.48;nan;94524.69;4935657;29;20044;-69
2022/10/11 07:11:53;;;;;;;19.42;9.50;;;;;;;11.69;nan;94526.47;4935040;29;20054;-69
2022/10/11 07:14:20;;;;;;;18.73;9.73;;;;;;;11.74;nan;94528.75;4935144;29;20052;-69
2022/10/11 07:16:47;;;;;;;18.92;9.57;;;;;;;11.79;nan;94530.28;4918800;29;20168;-69
2022/10/11 07:19:14;;;;;;;20.10;10.90;;;;;;;11.88;nan;94536.09;4934993;29;20045;-69
2022/10/11 07:21:40;;;;;;;18.50;10.50;;;;;;;11.84;nan;94538.09;4935399;29;20054;-69
2022/10/11 07:24:08;;;;;;;20.55;10.55;;;;;;;11.77;nan;94527.97;4934924;29;20052;-71
2022/10/11 07:26:34;;;;;;;20.00;10.52;;;;;;;11.86;nan;94524.72;4935135;29;20043;-69
2022/10/11 07:29:06;;;;;;;19.15;10.23;;;;;;;11.99;nan;94531.31;4934550;29;20054;-69
2022/10/11 07:31:37;;;;;;;21.98;11.20;;;;;;;11.77;nan;94541.72;4935201;29;20050;-70
2022/10/11 07:34:04;;;;;;;20.77;10.63;;;;;;;11.92;nan;94536.88;4934487;29;20086;-70
2022/10/11 07:36:31;;;;;;;20.33;10.52;;;;;;;12.25;nan;94537.28;4935110;29;20116;-69
2022/10/11 07:38:57;;;;;;;18.83;9.98;;;;;;;12.51;nan;94540.53;4934676;29;20054;-69
2022/10/11 07:41:24;;;;;;;20.42;9.50;;;;;;;12.67;nan;94528.91;4935209;29;20057;-69
2022/10/11 07:43:51;;;;;;;21.80;10.23;;;;;;;12.59;nan;94541.97;4934564;29;20047;-69
2022/10/11 07:46:18;;;;;;;19.20;9.30;;;;;;;12.58;nan;94538.47;4935090;29;20046;-69
2022/10/11 07:48:45;;;;;;;27.00;9.70;;;;;;;12.50;nan;94538.97;4934948;29;20051;-69
2022/10/11 07:51:15;;;;;;;21.83;9.77;;;;;;;12.75;nan;94533.91;4934353;29;20050;-69
2022/10/11 07:53:44;;;;;;;21.73;9.38;;;;;;;12.73;nan;94541.03;4934757;29;20082;-69
2022/10/11 07:56:13;;;;;;;29.02;14.35;;;;;;;12.65;nan;94540.31;4934313;29;20044;-69
2022/10/11 07:58:41;;;;;;;29.50;14.30;;;;;;;12.71;nan;94541.44;4934769;29;20489;-69
2022/10/11 08:01:09;;;;;;;29.80;13.20;;;;;;;12.64;nan;94538.78;4942379;29;20058;-69
2022/10/11 08:03:36;;;;;;;19.65;10.30;;;;;;;12.53;nan;94546.38;4935714;29;20043;-70
2022/10/11 08:06:06;;;;;;;19.25;10.10;;;;;;;12.67;nan;94546.19;4934150;29;20050;-69
2022/10/11 08:08:34;;;;;;;20.02;9.68;;;;;;;12.77;nan;94547.25;4933491;29;20056;-69
2022/10/11 08:11:02;;;;;;;18.77;9.83;;;;;;;12.33;nan;94547.00;4934050;29;20400;-69
2022/10/11 08:13:29;;;;;;;22.90;10.32;;;;;;;12.19;nan;94555.44;4917387;29;20047;-69
2022/10/11 08:15:56;;;;;;;20.85;10.30;;;;;;;12.06;nan;94548.91;4933811;29;20066;-69
2022/10/11 08:18:23;;;;;;;21.58;10.43;;;;;;;12.11;nan;94554.75;4934245;29;20078;-69
2022/10/11 08:20:51;;;;;;;19.17;9.73;;;;;;;12.31;nan;94557.66;4933770;29;20073;-69
2022/10/11 08:23:18;;;;;;;16.33;9.37;;;;;;;12.56;nan;94559.34;4934599;29;20408;-70
2022/10/11 08:25:46;;;;;;;17.48;9.55;;;;;;;12.77;nan;94559.03;4934672;29;20043;-69
2022/10/11 08:28:16;;;;;;;19.50;9.48;;;;;;;12.73;nan;94561.06;4933441;29;20044;-70
2022/10/11 08:30:50;;;;;;;20.08;9.32;;;;;;;12.86;nan;94566.03;4934131;29;20400;-70
2022/10/11 08:33:18;;;;;;;22.20;10.18;;;;;;;12.78;nan;94573.63;4933260;29;20396;-70
2022/10/11 08:35:45;;;;;;;20.03;9.03;;;;;;;12.88;nan;94566.41;4933961;29;20092;-69
2022/10/11 08:38:12;;;;;;;18.83;8.95;;;;;;;12.75;nan;94566.94;4933573;29;20468;-69
2022/10/11 08:40:51;;;;;;;19.08;9.18;;;;;;;12.62;nan;94567.94;4933828;29;20056;-70
2022/10/11 08:43:44;;;;;;;21.33;8.82;;;;;;;12.78;nan;94570.88;4934281;29;20854;-70
2022/10/11 08:46:13;;;;;;;18.92;8.35;;;;;;;12.82;nan;94571.59;4915640;29;20039;-69
2022/10/11 08:48:43;;;;;;;20.77;8.90;;;;;;;12.92;nan;94570.66;4934360;29;20086;-70
2022/10/11 08:51:22;;;;;;;19.73;8.90;;;;;;;12.79;nan;94572.41;4933069;29;20036;-70
2022/10/11 08:53:55;;;;;;;17.63;10.00;;;;;;;12.84;nan;94566.44;4933480;29;20481;-70
2022/10/11 08:56:24;;;;;;;20.27;10.00;;;;;;;12.92;nan;94567.16;4932880;29;20543;-70
2022/10/11 08:58:55;;;;;;;21.98;10.70;;;;;;;12.64;nan;94574.59;4932943;29;20047;-70
2022/10/11 09:01:25;;;;;;;22.67;10.00;;;;;;;12.36;nan;94570.97;4943102;29;20061;-69
2022/10/11 09:03:52;;;;;;;18.30;10.07;;;;;;;12.38;nan;94567.81;4918669;29;20044;-70
2022/10/11 09:06:25;;;;;;;18.88;9.85;;;;;;;12.66;nan;94566.69;4933139;29;20118;-70
2022/10/11 09:08:54;;;;;;;19.10;9.52;;;;;;;12.73;nan;94565.81;4931842;29;20047;-70
2022/10/11 09:11:41;;;;;;;23.95;9.75;;;;;;;12.88;nan;94564.44;4933106;29;20058;-70
2022/10/11 09:14:26;;;;;;;22.50;10.17;;;;;;;13.27;nan;94567.81;4915364;29;20492;-70
2022/10/11 09:17:13;;;;;;;19.25;8.98;;;;;;;13.55;nan;94567.38;4932740;29;20044;-69
2022/10/11 09:19:58;;;;;;;21.55;9.65;;;;;;;13.19;nan;94562.41;4932838;29;20054;-70
2022/10/11 09:22:57;;;;;;;21.23;9.55;;;;;;;12.72;nan;94570.53;4932191;29;21531;-70
2022/10/11 09:25:36;;;;;;;21.02;10.02;;;;;;;12.61;nan;94571.88;4920375;29;20621;-70
2022/10/11 09:28:31;;;;;;;26.60;10.70;;;;;;;12.46;nan;94569.28;4932839;29;20044;-71
2022/10/11 09:30:58;;;;;;;18.65;9.25;;;;;;;12.99;nan;94569.78;4932205;29;20432;-70
2022/10/11 09:33:32;;;;;;;18.48;9.43;;;;;;;13.04;nan;94571.28;4932804;29;20046;-70
2022/10/11 09:36:01;;;;;;;20.08;9.10;;;;;;;13.07;nan;94570.47;4932448;29;20370;-70
2022/10/11 09:38:39;;;;;;;23.83;9.75;;;;;;;13.12;nan;94561.72;4932953;29;20473;-70
2022/10/11 09:41:15;;;;;;;27.53;9.43;;;;;;;13.17;nan;94569.53;4932294;29;20516;-70
2022/10/11 09:43:50;;;;;;;21.17;10.57;;;;;;;13.39;nan;94570.00;4932856;29;20538;-70
2022/10/11 09:46:33;;;;;;;18.90;10.00;;;;;;;12.98;nan;94568.22;4932084;29;20733;-70
2022/10/11 09:49:06;;;;;;;18.58;9.68;;;;;;;12.75;nan;94574.44;4932291;29;20109;-70
2022/10/11 09:51:34;;;;;;;17.42;9.57;;;;;;;12.78;nan;94571.63;4932488;29;20055;-70
2022/10/11 09:54:04;;;;;;;20.80;9.97;;;;;;;13.09;nan;94571.59;4932000;29;20051;-70
2022/10/11 09:56:33;;;;;;;20.15;9.93;;;;;;;13.14;nan;94564.88;4915666;29;20051;-70
2022/10/11 09:59:30;;;;;;;19.38;9.93;;;;;;;13.04;nan;94569.31;4931830;29;20059;-70
2022/10/11 10:02:21;;;;;;;17.55;8.52;;;;;;;14.22;nan;94563.84;4945080;29;20053;-70
2022/10/11 10:04:58;;;;;;;18.38;8.73;;;;;;;14.14;nan;94565.19;4932740;29;20548;-70
2022/10/11 10:07:25;;;;;;;18.83;8.60;;;;;;;15.31;nan;94564.00;4931446;29;21700;-70
2022/10/11 10:09:55;;;;;;;17.77;9.18;;;;;;;16.22;nan;94563.38;4931805;29;20073;-70
2022/10/11 10:12:27;;;;;;;15.30;9.05;;;;;;;16.91;nan;94563.03;4932270;29;20047;-70
2022/10/11 10:15:00;;;;;;;14.80;7.65;;;;;;;17.39;nan;94557.66;4931912;29;20047;-70
2022/10/11 10:17:27;;;;;;;12.45;7.47;;;;;;;17.69;nan;94563.84;4932279;29;20416;-70
2022/10/11 10:19:55;;;;;;;15.83;7.77;;;;;;;17.85;nan;94560.16;4931741;29;20503;-70
2022/10/11 10:22:26;;;;;;;16.00;7.30;;;;;;;17.94;nan;94561.03;4932162;29;20071;-70
2022/10/11 10:24:54;;;;;;;15.57;6.95;;;;;;;18.37;nan;94550.44;4931825;29;20488;-71
2022/10/11 10:27:24;;;;;;;15.57;6.45;;;;;;;18.36;nan;94549.69;4932211;29;20066;-70
2022/10/11 10:30:06;;;;;;;15.38;6.18;;;;;;;18.08;nan;94550.69;4931760;29;20050;-69
2022/10/11 10:32:59;;;;;;;12.47;5.90;;;;;;;18.59;nan;94549.69;4934736;29;20044;-70
2022/10/11 10:35:31;;;;;;;11.30;5.82;;;;;;;19.00;nan;94551.38;4935619;29;20102;-70
2022/10/11 10:38:06;;;;;;;11.73;6.20;;;;;;;19.07;nan;94547.56;4935776;29;20048;-70
2022/10/11 10:40:41;;;;;;;11.13;5.45;;;;;;;19.18;nan;94549.94;4936481;29;20040;-70
2022/10/11 10:43:16;;;;;;;13.57;5.18;;;;;;;19.57;nan;94548.38;4935611;29;20043;-70
2022/10/11 10:46:06;;;;;;;14.27;4.97;;;;;;;19.68;nan;94550.72;4936007;29;20051;-70
2022/10/11 10:48:49;;;;;;;12.70;5.07;;;;;;;19.66;nan;94544.84;4897608;29;20855;-68
2022/10/11 10:51:47;;;;;;;11.05;5.30;;;;;;;18.67;nan;94542.66;4934602;29;20416;-68
2022/10/11 10:54:23;;;;;;;12.18;5.47;;;;;;;19.19;nan;94540.34;4932477;29;20492;-68
2022/10/11 10:56:54;;;;;;;13.00;4.65;;;;;;;19.32;nan;94541.03;4933692;29;20035;-67
2022/10/11 10:59:24;;;;;;;10.57;4.50;;;;;;;18.92;nan;94542.53;4935894;29;20043;-68
2022/10/11 11:02:00;;;;;;;13.25;4.88;;;;;;;18.51;nan;94535.28;4944678;29;20070;-67
2022/10/11 11:05:22;;;;;;;11.52;5.32;;;;;;;17.21;nan;94541.56;4935636;29;20059;-68
2022/10/11 11:08:04;;;;;;;13.73;5.40;;;;;;;18.61;nan;94534.09;4926320;29;20907;-69
2022/10/11 11:10:49;;;;;;;12.82;6.20;;;;;;;18.24;nan;94544.19;4934495;29;20039;-69
2022/10/11 11:13:17;;;;;;;17.30;7.20;;;;;;;17.72;nan;94535.94;4934648;29;20823;-68
2022/10/11 11:16:08;;;;;;;15.98;8.15;;;;;;;17.03;nan;94541.31;4924343;29;20586;-69
2022/10/11 11:18:57;;;;;;;17.20;8.70;;;;;;;14.94;nan;94537.56;4934577;29;20909;-69
2022/10/11 11:21:36;;;;;;;15.63;7.97;;;;;;;15.63;nan;94543.06;4934437;29;20629;-69
2022/10/11 11:24:35;;;;;;;17.42;8.43;;;;;;;15.18;nan;94535.47;4934965;29;20048;-68
2022/10/11 11:27:14;;;;;;;25.53;10.00;;;;;;;15.16;nan;94538.66;4934905;29;20050;-69
2022/10/11 11:30:04;;;;;;;19.70;8.65;;;;;;;15.28;nan;94539.19;4935692;29;20539;-70
2022/10/11 11:32:47;;;;;;;19.83;8.55;;;;;;;14.53;nan;94530.53;4934520;29;20429;-70
2022/10/11 11:35:32;;;;;;;16.13;7.85;;;;;;;14.55;nan;94537.19;4934754;29;20488;-70
2022/10/11 11:38:42;;;;;;;17.27;8.30;;;;;;;14.69;nan;94533.38;4934732;29;20044;-70
2022/10/11 11:41:39;;;;;;;18.23;9.13;;;;;;;14.74;nan;94527.31;4915166;29;20044;-69
2022/10/11 11:44:16;;;;;;;19.15;8.77;;;;;;;14.86;nan;94522.34;4934241;29;20059;-70
2022/10/11 11:46:50;;;;;;;18.95;8.90;;;;;;;15.02;nan;94529.91;4935059;29;20046;-70
2022/10/11 11:49:23;;;;;;;18.38;8.85;;;;;;;14.51;nan;94527.41;4933984;29;21585;-70
2022/10/11 11:51:50;;;;;;;24.52;9.40;;;;;;;14.45;nan;94527.13;4933972;29;20043;-69
2022/10/11 11:54:27;;;;;;;19.23;8.40;;;;;;;15.00;nan;94529.56;4934816;29;20040;-70
2022/10/11 11:57:21;;;;;;;15.68;7.70;;;;;;;15.15;nan;94533.53;4934404;29;20408;-69
2022/10/11 12:00:11;;;;;;;16.00;7.30;;;;;;;15.92;nan;94526.56;4934641;29;20082;-70
2022/10/11 12:03:01;;;;;;;13.85;6.95;;;;;;;16.44;nan;94530.31;4934033;29;20633;-69
2022/10/11 12:05:35;;;;;;;14.20;7.07;;;;;;;16.31;nan;94532.25;4933413;29;20704;-69